Time;durP1;ratioP1;P1;durP2;ratioP2;P2;SDS_P1;SDS_P2;PMS_P1;PMS_P2;Temp;Humidity;BMP_temperature;BMP_pressure;BME280_temperature;BME280_humidity;BME280_pressure;Samples;Min_cycle;Max_cycle;Signal;HPM_P1;HPM_P2
2024/01/03 00:00:19;;;;;;;;;12.60;11.20;;;;;8.22;40.75;98679.09;4950664;28;8873;-77
2024/01/03 00:03:08;;;;;;;;;11.20;11.00;;;;;8.08;41.38;98676.00;4976908;28;9608;-79
2024/01/03 00:05:38;;;;;;;;;10.00;9.80;;;;;8.19;40.95;98673.94;5010441;28;8893;-77
2024/01/03 00:08:15;;;;;;;;;12.60;11.40;;;;;8.24;40.35;98676.44;5009782;28;8851;-78
2024/01/03 00:10:50;;;;;;;;;13.00;13.00;;;;;8.11;41.27;98673.28;5009082;28;9016;-78
2024/01/03 00:14:04;;;;;;;;;12.40;12.00;;;;;8.30;40.59;98672.81;5009312;28;8850;-77
2024/01/03 00:16:34;;;;;;;;;12.00;10.40;;;;;8.58;39.92;98673.84;5019706;28;8866;-78
2024/01/03 00:19:05;;;;;;;;;11.80;10.60;;;;;8.63;40.37;98669.34;5070607;28;8841;-77
2024/01/03 00:21:33;;;;;;;;;13.80;11.40;;;;;8.70;39.92;98663.94;5035774;28;8842;-77
2024/01/03 00:24:07;;;;;;;;;18.80;16.00;;;;;8.68;39.70;98663.97;5070477;28;8838;-77
2024/01/03 00:26:36;;;;;;;;;13.20;11.00;;;;;8.57;40.43;98666.91;5035843;28;8847;-76
2024/01/03 00:29:32;;;;;;;;;15.40;14.80;;;;;8.71;39.91;98661.28;5069105;28;8863;-77
2024/01/03 00:32:05;;;;;;;;;15.80;12.20;;;;;8.51;39.74;98674.03;4924732;28;8886;-77
2024/01/03 00:34:40;;;;;;;;;12.20;12.20;;;;;8.44;39.84;98663.75;4972055;28;8846;-79
2024/01/03 00:37:27;;;;;;;;;9.40;8.00;;;;;8.43;39.79;98659.38;4972181;28;8890;-77
2024/01/03 00:39:58;;;;;;;;;9.00;9.00;;;;;8.32;40.21;98663.19;4972377;28;8850;-78
2024/01/03 00:42:26;;;;;;;;;13.40;12.00;;;;;8.43;39.88;98664.63;4988209;28;8894;-79
2024/01/03 00:44:57;;;;;;;;;15.40;10.20;;;;;8.40;40.43;98654.25;4972145;28;8866;-78
2024/01/03 00:47:46;;;;;;;;;10.00;10.00;;;;;8.44;40.05;98661.13;4968716;28;8949;-76
2024/01/03 00:50:16;;;;;;;;;16.00;13.80;;;;;8.32;40.20;98658.81;4968870;28;8904;-78
2024/01/03 00:52:45;;;;;;;;;13.60;10.80;;;;;8.48;39.93;98659.28;4952570;28;9021;-78
2024/01/03 00:55:14;;;;;;;;;10.80;10.20;;;;;8.22;40.18;98658.16;4951619;28;8903;-77
2024/01/03 00:57:43;;;;;;;;;12.40;12.20;;;;;8.29;39.64;98658.88;4952298;28;8865;-78
2024/01/03 01:00:15;;;;;;;;;11.60;9.60;;;;;8.22;40.04;98658.16;4952555;28;8873;-77
2024/01/03 01:02:45;;;;;;;;;14.40;11.80;;;;;8.20;39.86;98653.88;4952420;28;8865;-76
2024/01/03 01:05:15;;;;;;;;;10.20;8.40;;;;;8.29;40.28;98665.84;4968581;28;8876;-77
2024/01/03 01:07:44;;;;;;;;;9.60;9.00;;;;;8.37;39.53;98661.31;4952258;28;8865;-78
2024/01/03 01:10:13;;;;;;;;;9.60;9.00;;;;;8.47;39.88;98662.78;4999909;28;9578;-76
2024/01/03 01:12:42;;;;;;;;;10.20;10.20;;;;;8.50;39.53;98660.09;4962756;28;8852;-78
2024/01/03 01:15:13;;;;;;;;;8.60;8.00;;;;;8.60;39.07;98655.47;5011494;28;9631;-77
2024/01/03 01:17:42;;;;;;;;;10.40;8.80;;;;;8.70;39.15;98650.84;5027007;28;8907;-77
2024/01/03 01:20:12;;;;;;;;;9.00;8.60;;;;;8.51;39.37;98643.47;5069089;28;8854;-77
2024/01/03 01:22:41;;;;;;;;;7.40;7.20;;;;;8.53;39.19;98646.91;5034626;28;8967;-77
2024/01/03 01:25:10;;;;;;;;;9.80;8.60;;;;;8.60;38.83;98648.47;5068963;28;8811;-76
2024/01/03 01:27:39;;;;;;;;;8.60;8.20;;;;;8.48;39.48;98645.31;5068210;28;8855;-76
2024/01/03 01:30:09;;;;;;;;;6.60;5.40;;;;;8.52;39.12;98642.59;5033494;28;8897;-78
2024/01/03 01:32:39;;;;;;;;;6.60;4.80;;;;;8.79;39.27;98632.22;5069177;28;8858;-77
2024/01/03 01:35:09;;;;;;;;;10.00;9.00;;;;;8.59;39.01;98633.66;5017351;28;8966;-77
2024/01/03 01:37:37;;;;;;;;;10.60;9.40;;;;;8.79;38.51;98638.31;5067902;28;8854;-75
2024/01/03 01:40:08;;;;;;;;;7.00;6.60;;;;;8.66;39.01;98629.09;5067856;28;9589;-77
2024/01/03 01:42:37;;;;;;;;;5.80;5.80;;;;;8.77;38.83;98627.03;5049714;28;8943;-76
2024/01/03 01:45:07;;;;;;;;;5.20;5.00;;;;;8.79;38.80;98622.59;5033474;28;8966;-79
2024/01/03 01:47:36;;;;;;;;;6.00;6.00;;;;;8.71;38.69;98621.13;5066392;28;8854;-79
2024/01/03 01:50:09;;;;;;;;;7.80;6.00;;;;;8.93;38.21;98622.22;5066558;28;8866;-76
2024/01/03 01:52:39;;;;;;;;;6.00;6.00;;;;;9.25;37.85;98615.13;5066647;28;8826;-77
2024/01/03 01:55:11;;;;;;;;;5.60;5.60;;;;;9.20;37.57;98612.69;5066473;28;8868;-76
2024/01/03 01:57:42;;;;;;;;;5.60;5.20;;;;;9.15;37.73;98608.47;5066125;28;8995;-76
2024/01/03 02:00:13;;;;;;;;;6.60;6.40;;;;;9.27;37.57;98613.31;5017634;28;8849;-77
2024/01/03 02:02:44;;;;;;;;;5.80;4.40;;;;;9.20;37.58;98609.19;5062470;28;8884;-77
2024/01/03 02:05:14;;;;;;;;;4.20;4.00;;;;;9.00;37.71;98602.78;5049614;28;9645;-76
2024/01/03 02:07:43;;;;;;;;;6.80;5.20;;;;;9.12;37.71;98598.06;5065768;28;8874;-77
2024/01/03 02:10:13;;;;;;;;;6.40;4.80;;;;;8.89;37.48;98586.50;5066046;28;8834;-79
2024/01/03 02:12:41;;;;;;;;;6.40;5.00;;;;;9.08;37.44;98588.59;5065877;28;8891;-79
2024/01/03 02:15:10;;;;;;;;;5.00;5.00;;;;;9.04;37.59;98593.06;5066665;28;8845;-76
2024/01/03 02:17:41;;;;;;;;;4.60;3.80;;;;;8.97;37.61;98594.13;5069460;28;8858;-77
2024/01/03 02:20:14;;;;;;;;;5.20;4.00;;;;;9.07;37.49;98586.88;5083671;28;8845;-77
2024/01/03 02:22:45;;;;;;;;;3.00;3.00;;;;;9.18;37.58;98588.25;5070547;28;9708;-76
2024/01/03 02:25:14;;;;;;;;;4.60;4.00;;;;;9.07;37.58;98582.50;5086195;28;8884;-76
2024/01/03 02:27:43;;;;;;;;;6.80;4.60;;;;;9.15;37.34;98584.88;5069262;28;8924;-77
2024/01/03 02:30:13;;;;;;;;;5.20;4.00;;;;;9.41;36.84;98584.06;5069559;28;8858;-77
2024/01/03 02:32:42;;;;;;;;;5.40;5.40;;;;;9.40;36.91;98577.97;5049846;28;8866;-77
2024/01/03 02:35:11;;;;;;;;;3.00;3.00;;;;;9.23;37.23;98564.50;5068277;28;9706;-76
2024/01/03 02:37:40;;;;;;;;;6.00;6.00;;;;;9.10;37.25;98568.41;5068370;28;8846;-77
2024/01/03 02:40:12;;;;;;;;;4.60;4.60;;;;;9.11;37.15;98571.00;5066917;28;8889;-77
2024/01/03 02:42:40;;;;;;;;;5.60;3.80;;;;;9.37;36.90;98554.47;5068532;28;8872;-77
2024/01/03 02:45:10;;;;;;;;;4.80;4.80;;;;;9.24;36.90;98550.50;5017321;28;8866;-77
2024/01/03 02:47:38;;;;;;;;;3.00;3.00;;;;;9.21;37.17;98551.47;5068608;28;8838;-77
2024/01/03 02:50:09;;;;;;;;;3.20;3.20;;;;;9.30;36.83;98545.06;5034037;28;8835;-76
2024/01/03 02:52:38;;;;;;;;;4.60;3.40;;;;;9.37;37.01;98548.38;5068763;28;8846;-77
2024/01/03 02:55:08;;;;;;;;;5.20;4.20;;;;;9.43;36.43;98546.38;5068300;28;8846;-77
2024/01/03 02:57:38;;;;;;;;;4.40;4.40;;;;;9.30;36.93;98545.06;5068251;28;9663;-76
2024/01/03 03:00:10;;;;;;;;;4.40;3.00;;;;;9.49;36.76;98540.06;5067905;28;8850;-76
2024/01/03 03:02:39;;;;;;;;;3.80;3.00;;;;;9.52;36.53;98529.50;5068047;28;8870;-77
2024/01/03 03:05:08;;;;;;;;;6.00;5.20;;;;;9.19;37.12;98532.28;5068006;28;8842;-76
2024/01/03 03:07:37;;;;;;;;;3.60;2.80;;;;;9.57;36.73;98524.13;5032511;28;8916;-77
2024/01/03 03:10:10;;;;;;;;;3.80;3.80;;;;;9.53;36.62;98525.94;5068048;28;8847;-76
2024/01/03 03:12:40;;;;;;;;;2.00;2.00;;;;;9.68;36.24;98518.50;5068040;28;8846;-78
2024/01/03 03:15:10;;;;;;;;;3.00;2.00;;;;;9.67;36.24;98512.41;5066839;28;9632;-77
2024/01/03 03:17:40;;;;;;;;;3.60;2.00;;;;;9.67;36.16;98516.78;5066533;28;8943;-77
2024/01/03 03:20:11;;;;;;;;;5.00;4.00;;;;;9.72;36.14;98502.59;5071406;28;8846;-78
2024/01/03 03:22:39;;;;;;;;;5.00;2.00;;;;;9.42;36.76;98502.72;5071777;28;8838;-77
2024/01/03 03:25:09;;;;;;;;;3.00;3.00;;;;;9.63;36.23;98505.56;5020483;28;8965;-76
2024/01/03 03:27:38;;;;;;;;;2.40;1.60;;;;;9.79;36.02;98498.88;5053038;28;8866;-77
2024/01/03 03:30:09;;;;;;;;;3.00;3.00;;;;;9.87;36.08;98506.47;5049272;28;9588;-76
2024/01/03 03:32:38;;;;;;;;;7.00;6.00;;;;;9.86;35.73;98510.03;5049194;28;8896;-77
2024/01/03 03:35:08;;;;;;;;;5.60;4.60;;;;;10.03;35.81;98512.06;5048915;28;8834;-76
2024/01/03 03:37:37;;;;;;;;;11.60;7.00;;;;;10.07;35.26;98499.69;5000147;28;8862;-76
2024/01/03 03:40:08;;;;;;;;;7.00;5.80;;;;;10.02;35.55;98497.19;5048617;28;8892;-76
2024/01/03 03:42:36;;;;;;;;;4.60;4.60;;;;;10.00;35.50;98497.25;5000521;28;8981;-78
2024/01/03 03:45:06;;;;;;;;;4.60;4.60;;;;;10.08;35.57;98499.59;5049736;28;8831;-78
2024/01/03 03:47:36;;;;;;;;;5.60;4.00;;;;;10.04;35.76;98491.91;5053401;28;8927;-78
2024/01/03 03:50:07;;;;;;;;;7.60;5.80;;;;;10.25;35.20;98485.00;5054068;28;8854;-76
2024/01/03 03:52:38;;;;;;;;;3.60;3.60;;;;;9.88;35.71;98488.97;4992614;28;8858;-77
2024/01/03 03:55:08;;;;;;;;;5.00;5.00;;;;;10.09;35.53;98487.34;4973464;28;9438;-78
2024/01/03 03:57:37;;;;;;;;;4.80;4.80;;;;;10.20;35.38;98493.06;4940703;28;8876;-78
2024/01/03 04:00:08;;;;;;;;;5.80;5.40;;;;;10.27;35.37;98491.06;4988875;28;8862;-78
2024/01/03 04:02:42;;;;;;;;;5.60;4.60;;;;;10.44;35.19;98493.91;5028443;28;8983;-78
2024/01/03 04:05:11;;;;;;;;;9.80;7.80;;;;;10.56;34.66;98490.00;5028008;28;8868;-76
2024/01/03 04:07:40;;;;;;;;;8.20;6.00;;;;;10.36;35.02;98490.72;5029492;28;8966;-75
2024/01/03 04:10:10;;;;;;;;;5.00;5.00;;;;;10.21;34.94;98487.75;4981299;28;8985;-76
2024/01/03 04:12:39;;;;;;;;;3.60;3.60;;;;;10.20;35.02;98483.41;5028090;28;8860;-77
2024/01/03 04:15:08;;;;;;;;;4.80;4.60;;;;;10.19;35.52;98478.22;5028326;28;8872;-77
2024/01/03 04:17:37;;;;;;;;;5.00;5.00;;;;;10.46;35.25;98488.59;5027868;28;8974;-77
2024/01/03 04:20:09;;;;;;;;;21.80;18.00;;;;;10.59;34.67;98477.59;5027616;28;10058;-77
2024/01/03 04:22:42;;;;;;;;;7.00;5.80;;;;;10.33;35.06;98482.94;5027803;28;8845;-77
2024/01/03 04:25:12;;;;;;;;;6.40;5.20;;;;;10.28;35.19;98474.41;5027873;28;8883;-76
2024/01/03 04:27:41;;;;;;;;;4.60;4.20;;;;;10.33;35.41;98465.44;5027853;28;8881;-76
2024/01/03 04:30:10;;;;;;;;;6.00;4.60;;;;;10.16;35.44;98473.06;5046424;28;8958;-78
2024/01/03 04:32:39;;;;;;;;;3.60;3.20;;;;;10.34;35.22;98464.50;5051036;28;8854;-78
2024/01/03 04:35:10;;;;;;;;;3.80;3.00;;;;;10.48;35.32;98476.28;5070002;28;8831;-76
2024/01/03 04:37:39;;;;;;;;;4.00;4.00;;;;;10.21;35.74;98473.75;5071075;28;8835;-77
2024/01/03 04:40:10;;;;;;;;;3.80;3.80;;;;;10.26;35.70;98466.56;5070672;28;8985;-77
2024/01/03 04:42:39;;;;;;;;;3.60;3.60;;;;;10.51;35.33;98474.38;5069850;28;8866;-77
2024/01/03 04:45:08;;;;;;;;;5.80;5.20;;;;;10.70;35.67;98481.56;5018765;28;8834;-76
2024/01/03 04:47:37;;;;;;;;;11.20;8.00;;;;;10.66;35.35;98472.09;5069927;28;8964;-76
2024/01/03 04:50:07;;;;;;;;;5.00;5.00;;;;;10.26;35.86;98474.47;5069818;28;8935;-77
2024/01/03 04:52:37;;;;;;;;;4.60;4.60;;;;;10.31;36.22;98475.16;5069859;28;8857;-77
2024/01/03 04:55:08;;;;;;;;;3.40;3.40;;;;;10.10;37.18;98482.03;5069081;28;8862;-76
2024/01/03 04:57:36;;;;;;;;;4.20;4.20;;;;;10.21;37.72;98477.22;5034295;28;8858;-76
2024/01/03 05:00:06;;;;;;;;;3.20;3.20;;;;;10.43;37.72;98478.25;5069862;28;8842;-76
2024/01/03 05:02:36;;;;;;;;;8.80;6.60;;;;;10.13;38.16;98486.31;5051101;28;9043;-78
2024/01/03 05:05:06;;;;;;;;;8.20;6.20;;;;;10.35;38.82;98491.66;5069536;28;9616;-75
2024/01/03 05:07:35;;;;;;;;;5.40;5.00;;;;;10.46;38.87;98494.72;5050289;28;8855;-77
2024/01/03 05:10:08;;;;;;;;;5.60;5.60;;;;;10.24;38.08;98497.28;5051503;28;8885;-77
2024/01/03 05:12:38;;;;;;;;;11.00;9.20;;;;;10.29;38.81;98513.75;5034043;28;9009;-78
2024/01/03 05:15:09;;;;;;;;;12.20;11.60;;;;;10.55;38.83;98511.91;5069431;28;8931;-77
2024/01/03 05:17:38;;;;;;;;;11.20;6.00;;;;;10.58;39.12;98510.03;5017763;28;9659;-76
2024/01/03 05:20:09;;;;;;;;;11.00;7.60;;;;;10.52;39.23;98515.53;5069182;28;8878;-77
2024/01/03 05:22:38;;;;;;;;;12.80;8.00;;;;;10.23;40.75;98511.31;5069653;28;9842;-77
2024/01/03 05:25:09;;;;;;;;;10.00;9.40;;;;;10.50;40.97;98512.09;5034813;28;8911;-77
2024/01/03 05:27:38;;;;;;;;;50.80;42.20;;;;;10.51;41.54;98516.44;5067720;28;8970;-77
2024/01/03 05:30:08;;;;;;;;;14.20;12.00;;;;;10.40;41.49;98505.47;5069066;28;8931;-77
2024/01/03 05:32:37;;;;;;;;;9.80;8.00;;;;;10.36;41.44;98519.63;5067587;28;8996;-77
2024/01/03 05:35:07;;;;;;;;;14.60;14.40;;;;;10.15;42.20;98521.25;5068916;28;9612;-76
2024/01/03 05:37:36;;;;;;;;;17.60;17.40;;;;;10.27;42.67;98517.34;5068836;28;9732;-78
2024/01/03 05:40:09;;;;;;;;;11.20;9.60;;;;;10.31;42.70;98518.94;5069052;28;8842;-77
2024/01/03 05:42:37;;;;;;;;;6.60;6.60;;;;;10.39;42.19;98509.88;5068193;28;8850;-77
2024/01/03 05:45:08;;;;;;;;;9.40;9.40;;;;;10.20;42.30;98514.94;5068940;28;8922;-77
2024/01/03 05:47:36;;;;;;;;;12.40;11.60;;;;;10.35;42.67;98504.78;5067181;28;9674;-78
2024/01/03 05:50:08;;;;;;;;;11.00;11.00;;;;;10.12;42.85;98498.59;5068675;28;8846;-76
2024/01/03 05:52:37;;;;;;;;;13.60;12.00;;;;;9.79;43.81;98498.00;5000933;28;8874;-77
2024/01/03 05:55:09;;;;;;;;;22.00;16.40;;;;;9.82;44.42;98490.03;5068863;28;8877;-76
2024/01/03 05:57:37;;;;;;;;;14.60;14.60;;;;;9.54;44.52;98487.47;5051158;28;8883;-78
2024/01/03 06:00:09;;;;;;;;;14.00;13.20;;;;;9.50;44.89;98483.22;5050924;28;8993;-78
2024/01/03 06:02:37;;;;;;;;;12.00;11.00;;;;;9.41;44.87;98480.00;5068763;28;8889;-78
2024/01/03 06:05:08;;;;;;;;;9.20;6.00;;;;;9.37;44.86;98481.03;5068783;28;8838;-76
2024/01/03 06:07:37;;;;;;;;;7.40;7.20;;;;;9.23;45.32;98485.84;5050024;28;8830;-77
2024/01/03 06:10:08;;;;;;;;;9.60;7.40;;;;;9.28;45.17;98491.81;5068661;28;9147;-77
2024/01/03 06:12:36;;;;;;;;;2.80;2.80;;;;;9.54;44.34;98480.44;5033776;28;8886;-77
2024/01/03 06:15:07;;;;;;;;;5.00;5.00;;;;;9.44;44.59;98492.16;5068405;28;8854;-77
2024/01/03 06:17:36;;;;;;;;;9.00;7.20;;;;;9.19;45.45;98492.09;5033412;28;8870;-77
2024/01/03 06:20:07;;;;;;;;;14.00;13.00;;;;;9.21;45.66;98492.91;5066976;28;8831;-77
2024/01/03 06:22:36;;;;;;;;;7.80;5.80;;;;;9.29;45.25;98497.91;5049179;28;8954;-77
2024/01/03 06:25:05;;;;;;;;;9.60;8.80;;;;;9.19;45.71;98495.56;5066769;28;8839;-76
2024/01/03 06:27:36;;;;;;;;;12.60;11.20;;;;;9.19;45.55;98498.19;5068597;28;8854;-77
2024/01/03 06:30:06;;;;;;;;;8.20;6.40;;;;;9.21;45.81;98499.03;5068506;28;8827;-77
2024/01/03 06:32:35;;;;;;;;;10.80;7.60;;;;;9.24;45.76;98500.69;5068400;28;9628;-76
2024/01/03 06:35:05;;;;;;;;;11.20;8.60;;;;;9.48;45.39;98504.28;5067158;28;8866;-77
2024/01/03 06:37:34;;;;;;;;;9.40;9.00;;;;;9.51;45.47;98511.19;5045855;28;8862;-77
2024/01/03 06:40:03;;;;;;;;;9.00;9.00;;;;;9.52;45.82;98507.66;5045636;28;8830;-76
2024/01/03 06:42:32;;;;;;;;;8.20;6.80;;;;;9.69;45.76;98514.97;5045638;28;8866;-76
2024/01/03 06:45:03;;;;;;;;;8.20;7.20;;;;;9.69;46.16;98514.97;5012567;28;8866;-77
2024/01/03 06:47:33;;;;;;;;;11.80;10.40;;;;;9.81;46.13;98518.03;5045496;28;9815;-77
2024/01/03 06:50:02;;;;;;;;;9.60;8.80;;;;;9.80;45.64;98524.22;5028894;28;8866;-77
2024/01/03 06:52:32;;;;;;;;;9.60;7.80;;;;;9.95;45.78;98524.56;5012867;28;8928;-79
2024/01/03 06:55:02;;;;;;;;;11.60;7.00;;;;;9.90;45.86;98532.63;5000714;28;8865;-77
2024/01/03 06:57:30;;;;;;;;;7.40;6.80;;;;;10.08;45.56;98531.09;5050052;28;8854;-76
2024/01/03 06:59:59;;;;;;;;;10.80;9.60;;;;;10.19;45.41;98541.25;5049452;28;8881;-76
2024/01/03 07:02:30;;;;;;;;;7.40;6.20;;;;;10.27;45.37;98544.44;5049248;28;8967;-76
2024/01/03 07:04:59;;;;;;;;;12.00;11.00;;;;;10.14;45.38;98551.03;5049426;28;8908;-77
2024/01/03 07:07:28;;;;;;;;;13.60;12.00;;;;;10.27;45.78;98549.69;5000201;28;8959;-78
2024/01/03 07:09:58;;;;;;;;;14.20;13.40;;;;;10.42;45.56;98555.31;5071396;28;8866;-78
2024/01/03 07:12:26;;;;;;;;;14.20;13.20;;;;;10.50;45.53;98542.75;5071697;28;8893;-77
2024/01/03 07:14:56;;;;;;;;;15.00;14.20;;;;;10.61;45.94;98537.97;5070453;28;9702;-76
2024/01/03 07:17:26;;;;;;;;;14.20;11.00;;;;;10.64;45.89;98544.91;5066615;28;8849;-77
2024/01/03 07:19:56;;;;;;;;;12.40;7.00;;;;;10.73;45.28;98549.81;5051446;28;8883;-77
2024/01/03 07:22:25;;;;;;;;;11.00;11.00;;;;;10.72;45.29;98548.06;5050959;28;9044;-78
2024/01/03 07:24:54;;;;;;;;;14.40;13.60;;;;;10.66;45.48;98556.19;5051932;28;9627;-78
2024/01/03 07:27:23;;;;;;;;;11.40;10.20;;;;;10.74;45.15;98546.28;5051651;28;8918;-76
2024/01/03 07:29:53;;;;;;;;;15.00;13.40;;;;;10.88;45.91;98554.50;5055164;28;8882;-76
2024/01/03 07:32:22;;;;;;;;;17.00;17.00;;;;;10.96;45.93;98548.97;5069993;28;9131;-77
2024/01/03 07:34:53;;;;;;;;;10.80;10.80;;;;;11.06;45.50;98552.09;5070028;28;8866;-77
2024/01/03 07:37:23;;;;;;;;;4.20;4.00;;;;;11.12;46.05;98555.34;5069723;28;9667;-77
2024/01/03 07:39:52;;;;;;;;;14.20;13.60;;;;;11.17;45.71;98555.16;5069511;28;9787;-77
2024/01/03 07:42:21;;;;;;;;;17.20;13.80;;;;;11.11;45.96;98566.78;5052269;28;8870;-77
2024/01/03 07:44:50;;;;;;;;;19.00;17.00;;;;;11.19;45.52;98569.09;5070723;28;8904;-77
2024/01/03 07:47:19;;;;;;;;;17.60;16.20;;;;;10.93;45.71;98567.47;5070837;28;8854;-76
2024/01/03 07:49:48;;;;;;;;;25.80;23.60;;;;;10.97;46.26;98574.31;5070979;28;8842;-77
2024/01/03 07:52:17;;;;;;;;;23.00;23.00;;;;;11.03;46.38;98575.84;5070543;28;8895;-77
2024/01/03 07:54:47;;;;;;;;;17.20;17.20;;;;;11.01;46.51;98577.69;5070879;28;9588;-78
2024/01/03 07:57:16;;;;;;;;;26.40;22.40;;;;;11.06;46.66;98566.09;5051855;28;8862;-76
2024/01/03 07:59:46;;;;;;;;;23.00;20.40;;;;;11.06;47.32;98567.88;5070686;28;8838;-77
2024/01/03 08:02:15;;;;;;;;;26.40;24.20;;;;;10.91;47.55;98564.91;5070892;28;9616;-77
2024/01/03 08:04:44;;;;;;;;;26.20;23.00;;;;;10.78;48.00;98564.53;5051295;28;8953;-77
2024/01/03 08:07:13;;;;;;;;;26.20;23.80;;;;;10.78;48.36;98577.66;5070842;28;8889;-80
2024/01/03 08:09:43;;;;;;;;;24.20;22.80;;;;;10.56;49.02;98576.72;5069519;28;8943;-80
2024/01/03 08:12:13;;;;;;;;;22.80;21.60;;;;;10.73;48.99;98570.84;5070961;28;8851;-79
2024/01/03 08:14:42;;;;;;;;;20.60;19.80;;;;;10.78;49.61;98577.66;5069254;28;9008;-80
2024/01/03 08:17:11;;;;;;;;;20.40;18.00;;;;;10.84;49.13;98578.34;5070722;28;8883;-80
2024/01/03 08:19:40;;;;;;;;;17.20;15.60;;;;;10.76;49.18;98589.13;5071641;28;9469;-77
2024/01/03 08:22:10;;;;;;;;;18.00;17.00;;;;;10.79;50.09;98587.25;5073468;28;8881;-78
2024/01/03 08:24:39;;;;;;;;;22.00;21.20;;;;;10.70;50.28;98589.34;5074457;28;8871;-76
2024/01/03 08:27:08;;;;;;;;;20.20;18.80;;;;;10.40;51.40;98589.53;5070737;28;8846;-77
2024/01/03 08:29:39;;;;;;;;;23.20;20.60;;;;;10.43;51.62;98586.81;5069255;28;8866;-78
2024/01/03 08:32:08;;;;;;;;;26.20;24.60;;;;;10.40;51.99;98597.41;5052088;28;8866;-78
2024/01/03 08:34:37;;;;;;;;;28.80;25.40;;;;;10.40;52.39;98600.03;5034790;28;9084;-78
2024/01/03 08:37:06;;;;;;;;;37.80;33.80;;;;;10.28;52.85;98603.09;5069740;28;8893;-77
2024/01/03 08:39:35;;;;;;;;;26.00;23.00;;;;;9.91;54.32;98614.84;5034238;28;8929;-78
2024/01/03 08:42:05;;;;;;;;;26.20;22.20;;;;;9.80;54.96;98607.31;5068410;28;8862;-77
2024/01/03 08:44:34;;;;;;;;;32.40;27.40;;;;;9.95;54.73;98609.47;5069574;28;8838;-77
2024/01/03 08:47:04;;;;;;;;;26.80;25.40;;;;;9.80;55.80;98607.31;5070269;28;8865;-76
2024/01/03 08:49:33;;;;;;;;;34.60;26.20;;;;;9.71;56.87;98612.91;5070020;28;8855;-79
2024/01/03 08:52:04;;;;;;;;;31.20;25.20;;;;;9.75;56.78;98620.59;5071389;28;8881;-78
2024/01/03 08:54:33;;;;;;;;;23.40;21.20;;;;;9.83;56.97;98615.09;5003337;28;9604;-77
2024/01/03 08:57:02;;;;;;;;;23.80;22.60;;;;;10.04;57.07;98615.31;5051438;28;8873;-76
2024/01/03 08:59:31;;;;;;;;;21.00;19.60;;;;;10.04;56.42;98610.91;5069485;28;8854;-78
2024/01/03 09:02:01;;;;;;;;;23.80;21.20;;;;;10.19;56.76;98614.78;5018363;28;8881;-77
2024/01/03 09:04:32;;;;;;;;;23.00;22.20;;;;;10.20;56.99;98617.34;5068332;28;9561;-78
2024/01/03 09:07:01;;;;;;;;;28.40;26.60;;;;;10.24;56.69;98622.53;5070079;28;9026;-79
2024/01/03 09:09:31;;;;;;;;;27.00;24.80;;;;;10.38;57.07;98621.09;5070287;28;9718;-78
2024/01/03 09:12:00;;;;;;;;;24.60;23.00;;;;;10.51;56.45;98616.28;5069804;28;8853;-77
2024/01/03 09:14:29;;;;;;;;;25.40;23.20;;;;;10.60;56.77;98623.00;5069878;28;9000;-77
2024/01/03 09:16:58;;;;;;;;;26.80;24.80;;;;;10.48;57.15;98628.66;5067382;28;8884;-78
2024/01/03 09:19:28;;;;;;;;;27.20;26.20;;;;;10.43;57.25;98628.00;5069532;28;8854;-77
2024/01/03 09:21:59;;;;;;;;;27.60;24.60;;;;;10.46;56.84;98618.19;5069401;28;8878;-77
2024/01/03 09:24:29;;;;;;;;;30.40;28.80;;;;;10.42;56.85;98623.63;5033935;28;8916;-77
2024/01/03 09:26:59;;;;;;;;;31.00;28.80;;;;;10.39;57.77;98619.34;5067857;28;8847;-78
2024/01/03 09:29:28;;;;;;;;;28.00;24.40;;;;;10.27;57.71;98615.34;5033799;28;8851;-77
2024/01/03 09:31:58;;;;;;;;;26.80;26.80;;;;;10.25;58.12;98611.94;5068879;28;8874;-78
2024/01/03 09:34:28;;;;;;;;;34.00;30.00;;;;;10.34;58.31;98623.91;5068893;28;8870;-78
2024/01/03 09:36:58;;;;;;;;;31.40;30.80;;;;;10.51;57.77;98615.44;5068222;28;8885;-78
2024/01/03 09:39:27;;;;;;;;;32.60;31.40;;;;;10.48;57.65;98620.78;5047084;28;8879;-78
2024/01/03 09:41:56;;;;;;;;;36.60;32.80;;;;;10.51;58.27;98616.28;5046400;28;8956;-77
2024/01/03 09:44:27;;;;;;;;;36.80;33.00;;;;;10.66;58.01;98608.75;5013196;28;9588;-78
2024/01/03 09:46:56;;;;;;;;;32.60;28.80;;;;;10.71;57.54;98617.34;5046134;28;8858;-79
2024/01/03 09:49:26;;;;;;;;;32.60;29.20;;;;;10.79;57.43;98608.28;5046405;28;8905;-76
2024/01/03 09:51:56;;;;;;;;;27.60;26.00;;;;;10.64;56.85;98594.81;4997178;28;8846;-78
2024/01/03 09:54:27;;;;;;;;;31.00;30.20;;;;;10.82;57.16;98588.91;5045954;28;8850;-79
2024/01/03 09:56:56;;;;;;;;;33.60;28.00;;;;;10.91;57.46;98595.59;5046034;28;9051;-78
2024/01/03 09:59:26;;;;;;;;;30.80;29.20;;;;;10.96;56.72;98593.66;5046266;28;8935;-76
2024/01/03 10:01:58;;;;;;;;;35.80;30.60;;;;;11.05;56.69;98595.06;5029295;28;8850;-77
2024/01/03 10:04:27;;;;;;;;;32.20;31.60;;;;;11.09;56.27;98592.28;5029501;28;8830;-79
2024/01/03 10:06:58;;;;;;;;;39.25;35.50;;;;;11.22;55.99;98592.66;5046136;28;8866;-78
2024/01/03 10:09:41;;;;;;;;;43.20;35.20;;;;;11.45;55.54;98590.91;5045967;28;9000;-77
2024/01/03 10:12:17;;;;;;;;;45.75;37.50;;;;;11.44;55.60;98584.75;5068450;28;8963;-78
2024/01/03 10:14:47;;;;;;;;;47.00;40.25;;;;;11.46;55.50;98587.34;5067084;28;8923;-77
2024/01/03 10:17:16;;;;;;;;;48.50;39.00;;;;;11.55;55.28;98586.97;5068393;28;8888;-78
2024/01/03 10:19:46;;;;;;;;;43.25;35.50;;;;;11.57;54.48;98595.66;5067147;28;9601;-77
2024/01/03 10:22:20;;;;;;;;;39.25;36.00;;;;;11.69;54.28;98594.28;5068347;28;8866;-76
2024/01/03 10:24:50;;;;;;;;;48.00;41.50;;;;;11.65;54.75;98582.19;5068919;28;9569;-77
2024/01/03 10:27:19;;;;;;;;;43.25;37.75;;;;;11.70;54.37;98593.41;5069792;28;8843;-77
2024/01/03 10:29:49;;;;;;;;;43.75;36.50;;;;;11.71;54.92;98585.44;5053875;28;8911;-77
2024/01/03 10:32:19;;;;;;;;;46.25;39.00;;;;;11.70;55.06;98588.97;5072196;28;8847;-76
2024/01/03 10:34:49;;;;;;;;;41.00;36.25;;;;;11.70;55.04;98580.22;5072307;28;8850;-77
2024/01/03 10:37:18;;;;;;;;;44.00;38.00;;;;;11.69;55.68;98578.50;5072207;28;8855;-78
2024/01/03 10:39:54;;;;;;;;;47.75;38.00;;;;;11.67;55.81;98567.19;5036924;28;8897;-78
2024/01/03 10:42:23;;;;;;;;;49.25;41.50;;;;;11.68;56.03;98564.50;5073064;28;10078;-76
2024/01/03 10:44:54;;;;;;;;;48.50;40.75;;;;;11.45;56.01;98564.59;5072506;28;8880;-78
2024/01/03 10:47:23;;;;;;;;;46.00;38.50;;;;;11.07;56.83;98551.19;5070667;28;8977;-77
2024/01/03 10:49:53;;;;;;;;;43.25;38.50;;;;;10.55;58.38;98544.28;5070963;28;8857;-77
2024/01/03 10:52:26;;;;;;;;;44.00;35.75;;;;;10.59;58.62;98535.41;5070571;28;8851;-77
2024/01/03 10:54:58;;;;;;;;;33.80;32.80;;;;;10.53;58.64;98530.38;5070568;28;8889;-77
2024/01/03 10:57:31;;;;;;;;;34.80;33.00;;;;;10.71;58.67;98527.97;5071412;28;8847;-78
2024/01/03 11:00:12;;;;;;;;;34.60;32.60;;;;;10.76;58.75;98528.69;5071657;28;8839;-77
2024/01/03 11:02:49;;;;;;;;;36.80;34.80;;;;;10.95;58.35;98534.09;5071922;28;9617;-78
2024/01/03 11:05:26;;;;;;;;;39.40;36.00;;;;;10.88;58.18;98524.72;5052617;28;8893;-77
2024/01/03 11:08:03;;;;;;;;;36.60;32.80;;;;;10.98;57.84;98528.72;5071112;28;8881;-77
2024/01/03 11:10:51;;;;;;;;;32.20;29.40;;;;;11.15;57.09;98525.44;5071387;28;9616;-80
2024/01/03 11:13:27;;;;;;;;;32.20;29.80;;;;;11.24;57.49;98521.56;5071489;28;9452;-77
2024/01/03 11:15:58;;;;;;;;;37.60;31.20;;;;;11.25;57.30;98518.03;5069755;28;8866;-78
2024/01/03 11:18:55;;;;;;;;;34.00;30.00;;;;;11.46;57.17;98516.28;5070289;28;8882;-78
2024/01/03 11:21:45;;;;;;;;;32.00;30.00;;;;;11.34;56.75;98507.97;5071872;28;8842;-78
2024/01/03 11:24:53;;;;;;;;;34.20;29.40;;;;;11.29;57.30;98512.56;4989676;28;8866;-78
2024/01/03 11:27:24;;;;;;;;;33.80;32.60;;;;;11.20;57.25;98510.31;4941886;28;8956;-77
2024/01/03 11:29:55;;;;;;;;;34.80;31.00;;;;;11.29;57.42;98503.81;4989340;28;8921;-80
2024/01/03 11:32:36;;;;;;;;;33.00;29.60;;;;;11.20;57.31;98493.66;4989338;28;8862;-76
2024/01/03 11:35:11;;;;;;;;;34.60;30.00;;;;;11.12;57.41;98491.34;4989029;28;8891;-77
2024/01/03 11:37:41;;;;;;;;;27.00;24.80;;;;;11.18;57.57;98488.47;5004911;28;8878;-77
2024/01/03 11:40:20;;;;;;;;;30.20;27.80;;;;;11.34;57.23;98480.81;4988572;28;8862;-77
2024/01/03 11:42:58;;;;;;;;;26.60;25.40;;;;;11.38;57.67;98485.03;5005080;28;9017;-77
2024/01/03 11:45:28;;;;;;;;;29.00;27.40;;;;;11.38;57.05;98475.34;4990233;28;8891;-77
2024/01/03 11:48:02;;;;;;;;;32.80;31.80;;;;;11.44;57.07;98466.34;4989308;28;8859;-77
2024/01/03 11:50:33;;;;;;;;;37.40;34.00;;;;;11.47;56.70;98466.22;4989211;28;8866;-77
2024/01/03 11:53:10;;;;;;;;;30.80;27.80;;;;;11.40;56.49;98462.13;4988727;28;8847;-78